Weather at RAF Winkleigh [CLOSED]

Public forecast

Using degrees Celsius for public forecast. Weather courtesy of forecast.io.

Closest aviation weather report (METAR) to RAF Winkleigh

Report is more than 6 hours old.

Closest report is Exeter International Airport, 22.3 nm (41.2 km) ESE. Retrieved 2021/10/24 18:50 UTC (12 hours ago):

EGTE 241850Z 18006KT 9999 FEW020 13/12 Q1015

Closest aviation forecast (TAF) to RAF Winkleigh

Forecast is more than 12 hours old.

Closest forecast is Exeter International Airport, 22.3 nm (41.2 km) ESE. Retrieved 2012/04/19 12:15 UTC (10 years ago):

TAF TAF EGTE 191401Z 1912/1924 31016KT 9999 SCT030 SCT035 PROB40 TEMPO 1915/1918 7000 SHRA BKN014